Time;durP1;ratioP1;P1;durP2;ratioP2;P2;SDS_P1;SDS_P2;PMS_P1;PMS_P2;Temp;Humidity;BMP_temperature;BMP_pressure;BME280_temperature;BME280_humidity;BME280_pressure;Samples;Min_cycle;Max_cycle;Signal;HPM_P1;HPM_P2
2022/04/24 06:11:41;;;;;;;2.83;1.52;;;;;;;;;;6177857;23;20017;-82
2022/04/24 06:14:06;;;;;;;3.30;1.73;;;;;;;;;;6165202;23;20343;-79
2022/04/24 06:16:32;;;;;;;4.07;2.20;;;;;;;;;;6216440;23;20009;-81
2022/04/24 06:18:57;;;;;;;3.08;1.98;;;;;;;;;;6189638;23;20139;-85
2022/04/24 06:21:22;;;;;;;3.15;2.20;;;;;;;;;;6215985;23;20011;-80
2022/04/24 08:50:58;;;;;;;3.65;1.30;;;;;;;;;;6215695;23;20009;-77
2022/04/24 08:53:28;;;;;;;1.52;1.38;;;;;;;;;;6216368;23;20024;-77
2022/04/24 08:55:53;;;;;;;;;;;;;;;;;;6190569;23;20000;-76
2022/04/24 08:58:19;;;;;;;2.50;1.40;;;;;;;;;;6216347;23;19915;-78
2022/04/24 09:00:45;;;;;;;2.30;1.17;;;;;;;;;;6216600;23;20076;-77
2022/04/24 09:03:10;;;;;;;2.10;1.00;;;;;;;;;;6216722;23;20012;-75
2022/04/24 09:05:36;;;;;;;1.80;1.10;;;;;;;;;;6216502;23;20026;-77
2022/04/24 09:08:09;;;;;;;2.03;1.00;;;;;;;;;;6216504;23;20332;-78
2022/04/24 09:10:56;;;;;;;1.98;1.33;;;;;;;;;;6216725;23;20050;-78
2022/04/24 09:13:31;;;;;;;2.85;1.35;;;;;;;;;;6216263;23;20146;-77
2022/04/24 09:15:58;;;;;;;4.93;1.52;;;;;;;;;;6216608;23;20001;-77
2022/04/24 09:18:36;;;;;;;3.20;1.67;;;;;;;;;;6216905;23;20301;-76
2022/04/24 09:21:02;;;;;;;1.52;1.27;;;;;;;;;;6216003;23;20352;-76
2022/04/24 09:23:37;;;;;;;2.13;1.30;;;;;;;;;;6216381;23;20043;-76
2022/04/24 09:26:03;;;;;;;2.50;1.90;;;;;;;;;;6216512;23;20004;-78
2022/04/24 09:28:39;;;;;;;2.85;1.35;;;;;;;;;;6216473;23;20327;-77
2022/04/24 09:31:05;;;;;;;3.38;1.48;;;;;;;;;;6216564;23;20001;-78
2022/04/24 09:33:41;;;;;;;2.50;1.17;;;;;;;;;;6216397;23;20011;-78
2022/04/24 09:36:08;;;;;;;2.13;1.40;;;;;;;;;;6216239;23;20036;-77
2022/04/24 09:38:46;;;;;;;2.85;2.25;;;;;;;;;;6216350;23;20071;-79
2022/04/24 09:41:20;;;;;;;1.20;1.10;;;;;;;;;;6216392;23;20004;-78
2022/04/24 09:43:46;;;;;;;3.80;1.20;;;;;;;;;;6216210;23;20076;-80
2022/04/24 09:46:12;;;;;;;1.20;1.10;;;;;;;;;;6216065;23;20028;-77
2022/04/24 09:48:37;;;;;;;3.28;1.98;;;;;;;;;;6216217;23;20055;-77
2022/04/24 09:51:03;;;;;;;2.40;1.33;;;;;;;;;;6215901;23;20036;-77
2022/04/24 09:53:31;;;;;;;1.27;1.17;;;;;;;;;;6216352;23;20087;-77
2022/04/24 09:55:58;;;;;;;3.05;1.27;;;;;;;;;;6216225;23;20012;-77
2022/04/24 09:58:25;;;;;;;1.77;1.17;;;;;;;;;;6216130;23;19997;-77
2022/04/24 10:00:51;;;;;;;4.00;1.55;;;;;;;;;;6189237;23;20067;-78
2022/04/24 10:03:19;;;;;;;1.30;1.10;;;;;;;;;;6215940;23;20012;-78
2022/04/24 10:05:47;;;;;;;2.38;1.30;;;;;;;;;;6215957;23;20076;-78
2022/04/24 10:08:13;;;;;;;1.92;1.50;;;;;;;;;;6216270;23;20005;-78
2022/04/24 10:10:39;;;;;;;1.20;1.10;;;;;;;;;;6215967;23;20035;-78
2022/04/24 10:13:08;;;;;;;3.33;1.40;;;;;;;;;;6216059;23;20416;-75
2022/04/24 10:15:36;;;;;;;2.47;1.27;;;;;;;;;;6216113;23;20070;-78
2022/04/24 10:18:24;;;;;;;3.20;1.50;;;;;;;;;;6215898;23;20112;-77
2022/04/24 10:21:09;;;;;;;1.80;1.30;;;;;;;;;;6215909;23;20015;-78
2022/04/24 10:23:36;;;;;;;2.05;1.17;;;;;;;;;;6216028;23;20009;-77
2022/04/24 10:26:03;;;;;;;2.40;1.48;;;;;;;;;;6215642;23;20416;-76
2022/04/24 10:28:39;;;;;;;2.25;1.30;;;;;;;;;;6215734;23;20004;-77
2022/04/24 10:31:06;;;;;;;2.15;1.17;;;;;;;;;;6216208;23;20304;-76
2022/04/24 10:33:33;;;;;;;1.95;1.10;;;;;;;;;;6218277;23;20011;-77
2022/04/24 10:36:02;;;;;;;2.33;1.20;;;;;;;;;;6217878;23;20004;-76
2022/04/24 10:38:30;;;;;;;1.30;1.20;;;;;;;;;;6218088;23;20088;-77
2022/04/24 10:40:58;;;;;;;1.50;1.15;;;;;;;;;;6217858;23;20005;-77
2022/04/24 10:43:25;;;;;;;1.40;1.30;;;;;;;;;;6218132;23;20324;-76
2022/04/24 10:45:52;;;;;;;1.33;1.00;;;;;;;;;;6217794;23;20005;-77
2022/04/24 10:48:19;;;;;;;1.92;1.20;;;;;;;;;;6217610;23;20079;-76
2022/04/24 10:50:55;;;;;;;1.50;1.40;;;;;;;;;;6217318;23;20012;-76
2022/04/24 10:53:20;;;;;;;1.85;1.15;;;;;;;;;;6217722;23;20001;-76
2022/04/24 10:55:46;;;;;;;0.95;0.88;;;;;;;;;;6217952;23;20011;-76
2022/04/24 10:58:13;;;;;;;0.80;0.65;;;;;;;;;;6218197;23;20027;-77
2022/04/24 11:00:39;;;;;;;1.65;1.55;;;;;;;;;;6218228;23;20008;-85
2022/04/24 11:03:14;;;;;;;1.05;0.88;;;;;;;;;;6218866;23;20032;-89
2022/04/24 11:05:45;;;;;;;2.60;0.80;;;;;;;;;;6217749;23;20024;-85
2022/04/24 11:08:21;;;;;;;1.30;1.00;;;;;;;;;;6217623;23;20000;-80
2022/04/24 11:10:49;;;;;;;0.80;0.80;;;;;;;;;;6217761;23;20043;-80
2022/04/24 11:13:17;;;;;;;1.27;1.17;;;;;;;;;;6217715;23;20011;-79
2022/04/24 11:15:45;;;;;;;1.23;0.90;;;;;;;;;;6217334;23;20336;-83
2022/04/24 11:18:26;;;;;;;3.03;0.90;;;;;;;;;;6217593;23;20007;-80
2022/04/24 11:20:58;;;;;;;0.85;0.77;;;;;;;;;;6217073;23;20004;-81
2022/04/24 11:23:28;;;;;;;1.45;0.80;;;;;;;;;;6217305;23;20008;-80
2022/04/24 11:25:56;;;;;;;1.55;0.88;;;;;;;;;;6217744;23;20012;-79
2022/04/24 11:28:36;;;;;;;2.15;0.82;;;;;;;;;;6215929;23;20004;-80
2022/04/24 11:31:14;;;;;;;1.55;1.30;;;;;;;;;;6217042;23;20336;-80
2022/04/24 11:34:10;;;;;;;1.13;1.13;;;;;;;;;;6217232;23;20007;-81
2022/04/24 11:36:36;;;;;;;1.55;1.10;;;;;;;;;;6186773;23;20020;-83
2022/04/24 11:39:04;;;;;;;0.98;0.90;;;;;;;;;;6216931;23;20004;-80
2022/04/24 11:41:31;;;;;;;0.80;0.80;;;;;;;;;;6216981;23;20005;-80
2022/04/24 11:44:01;;;;;;;1.08;0.98;;;;;;;;;;6216991;23;20008;-85
2022/04/24 11:51:58;;;;;;;0.93;0.93;;;;;;;;;;6217514;23;20039;-82
2022/04/24 11:54:24;;;;;;;1.20;1.10;;;;;;;;;;6191037;23;20016;-84
2022/04/24 11:56:53;;;;;;;2.35;1.05;;;;;;;;;;6217368;23;20023;-84
2022/04/24 11:59:21;;;;;;;2.35;1.08;;;;;;;;;;6217301;23;20012;-84
2022/04/24 12:01:58;;;;;;;2.33;0.68;;;;;;;;;;6216999;23;20007;-80
2022/04/24 12:04:28;;;;;;;1.02;0.93;;;;;;;;;;6217358;23;20015;-81
2022/04/24 12:07:03;;;;;;;1.55;1.10;;;;;;;;;;6217038;23;20024;-80
2022/04/24 12:09:29;;;;;;;1.98;1.20;;;;;;;;;;6190253;23;20400;-80
2022/04/24 12:12:12;;;;;;;1.13;0.77;;;;;;;;;;6190468;23;20005;-82
2022/04/24 12:14:39;;;;;;;1.88;1.00;;;;;;;;;;6216519;23;20012;-79
2022/04/24 12:17:10;;;;;;;2.85;1.23;;;;;;;;;;6216713;23;20328;-78
2022/04/24 12:19:40;;;;;;;1.75;1.02;;;;;;;;;;6216989;23;20000;-78
2022/04/24 12:22:11;;;;;;;1.10;1.00;;;;;;;;;;6217079;23;20015;-78
2022/04/24 12:24:45;;;;;;;1.02;0.95;;;;;;;;;;6216754;23;20027;-78
2022/04/24 12:27:13;;;;;;;2.15;1.35;;;;;;;;;;6215632;23;20000;-78
2022/04/24 12:29:49;;;;;;;1.45;1.20;;;;;;;;;;6216880;23;20034;-78
2022/04/24 12:32:15;;;;;;;1.70;0.82;;;;;;;;;;6216586;23;19996;-78
2022/04/24 12:34:44;;;;;;;1.77;1.00;;;;;;;;;;6216885;23;20011;-78
2022/04/24 12:37:12;;;;;;;2.17;1.10;;;;;;;;;;6216894;23;20000;-78
2022/04/24 12:39:37;;;;;;;1.25;1.02;;;;;;;;;;6216729;23;20066;-79
2022/04/24 12:42:19;;;;;;;1.23;1.13;;;;;;;;;;6216957;23;20008;-79
2022/04/24 12:44:44;;;;;;;1.30;1.00;;;;;;;;;;6216885;23;20331;-79
2022/04/24 12:47:11;;;;;;;1.20;1.10;;;;;;;;;;6216778;23;20000;-78
2022/04/24 12:49:37;;;;;;;1.00;0.90;;;;;;;;;;6216703;23;20012;-78
2022/04/24 12:52:03;;;;;;;1.00;0.90;;;;;;;;;;6216477;23;20017;-78
2022/04/24 12:54:29;;;;;;;1.55;1.02;;;;;;;;;;6216321;23;20008;-79
2022/04/24 12:56:55;;;;;;;1.23;1.10;;;;;;;;;;6216569;23;20039;-79
2022/04/24 12:59:20;;;;;;;1.20;1.00;;;;;;;;;;6216575;23;20012;-79
2022/04/24 13:01:45;;;;;;;1.30;1.17;;;;;;;;;;6216472;23;20416;-79
2022/04/24 13:04:11;;;;;;;1.50;1.00;;;;;;;;;;6216550;23;20004;-78
2022/04/24 13:06:37;;;;;;;1.00;1.00;;;;;;;;;;6216318;23;20079;-79
2022/04/24 13:09:06;;;;;;;1.00;0.93;;;;;;;;;;6216217;23;20071;-79
2022/04/24 13:11:31;;;;;;;1.33;0.83;;;;;;;;;;6216419;23;20039;-79
2022/04/24 13:13:57;;;;;;;1.33;0.95;;;;;;;;;;6216488;23;20320;-77
2022/04/24 13:19:09;;;;;;;1.20;1.02;;;;;;;;;;6216412;23;20446;-79
2022/04/24 13:21:36;;;;;;;0.88;0.80;;;;;;;;;;6215889;23;20007;-79
2022/04/24 13:24:02;;;;;;;1.08;0.98;;;;;;;;;;6216421;23;20301;-80
2022/04/24 13:26:28;;;;;;;1.58;0.80;;;;;;;;;;6216199;23;20067;-79
2022/04/24 13:28:54;;;;;;;0.82;0.82;;;;;;;;;;6216030;23;20412;-79
2022/04/24 13:31:20;;;;;;;1.75;0.90;;;;;;;;;;6189557;23;20432;-79
2022/04/24 13:33:45;;;;;;;1.15;1.05;;;;;;;;;;6216176;23;19996;-79
2022/04/24 13:36:13;;;;;;;0.90;0.80;;;;;;;;;;6215928;23;20004;-79
2022/04/24 13:38:39;;;;;;;1.00;0.70;;;;;;;;;;6216357;23;20008;-81
2022/04/24 13:41:05;;;;;;;0.73;0.73;;;;;;;;;;6216049;23;20447;-80
2022/04/24 13:43:34;;;;;;;1.27;1.00;;;;;;;;;;6216132;23;20008;-84
2022/04/24 13:46:00;;;;;;;0.93;0.80;;;;;;;;;;6216050;23;20024;-80
2022/04/24 13:48:27;;;;;;;1.70;0.80;;;;;;;;;;6215918;23;20361;-82
2022/04/24 13:50:54;;;;;;;1.30;1.15;;;;;;;;;;6215284;23;20020;-81
2022/04/24 13:53:20;;;;;;;2.67;1.23;;;;;;;;;;6216039;23;20015;-84
2022/04/24 13:55:46;;;;;;;2.22;1.77;;;;;;;;;;6215747;23;19996;-84
2022/04/24 13:58:11;;;;;;;1.70;1.15;;;;;;;;;;6216142;23;20055;-84
2022/04/24 14:00:37;;;;;;;0.88;0.73;;;;;;;;;;6216010;23;20005;-80
2022/04/24 14:03:03;;;;;;;1.85;0.70;;;;;;;;;;6216615;23;20012;-86
2022/04/24 14:05:29;;;;;;;1.75;0.85;;;;;;;;;;6216551;23;20043;-85
2022/04/24 14:07:54;;;;;;;1.45;0.70;;;;;;;;;;6216379;23;20004;-84
2022/04/24 14:10:21;;;;;;;0.68;0.65;;;;;;;;;;6215814;23;20005;-81
2022/04/24 14:12:46;;;;;;;0.70;0.70;;;;;;;;;;6215875;23;20309;-82
2022/04/24 14:15:12;;;;;;;1.20;0.60;;;;;;;;;;6215739;23;20005;-82
2022/04/24 14:17:38;;;;;;;1.00;0.90;;;;;;;;;;6216813;23;20320;-80
2022/04/24 14:20:05;;;;;;;0.63;0.57;;;;;;;;;;6215758;23;20009;-80
2022/04/24 14:22:30;;;;;;;0.82;0.70;;;;;;;;;;6215637;23;20005;-81
2022/04/24 14:24:56;;;;;;;0.70;0.70;;;;;;;;;;6215738;23;20011;-82
2022/04/24 14:27:22;;;;;;;1.73;0.80;;;;;;;;;;6216105;23;20071;-79
2022/04/24 14:29:48;;;;;;;0.80;0.80;;;;;;;;;;6189040;23;20074;-80
2022/04/24 14:32:14;;;;;;;2.42;0.93;;;;;;;;;;6215635;23;20009;-78
2022/04/24 14:34:46;;;;;;;0.88;0.80;;;;;;;;;;6215774;23;20100;-78
2022/04/24 14:37:12;;;;;;;1.05;0.95;;;;;;;;;;6215678;23;20058;-77
2022/04/24 14:39:39;;;;;;;0.80;0.80;;;;;;;;;;6188938;23;20355;-82
2022/04/24 14:42:05;;;;;;;1.00;0.70;;;;;;;;;;6215626;23;20084;-81
2022/04/24 14:44:32;;;;;;;0.70;0.70;;;;;;;;;;6216034;23;20000;-85
2022/04/24 14:57:57;;;;;;;1.20;0.50;;;;;;;;;;6217501;23;20328;-84
2022/04/24 15:00:26;;;;;;;0.85;0.70;;;;;;;;;;6217249;23;20435;-85
2022/04/24 15:02:53;;;;;;;0.98;0.70;;;;;;;;;;6165966;23;20515;-84
2022/04/24 15:05:20;;;;;;;1.88;0.60;;;;;;;;;;6216518;23;20004;-85
2022/04/24 15:07:47;;;;;;;0.90;0.90;;;;;;;;;;6216269;23;20001;-86
2022/04/24 15:10:12;;;;;;;10.68;5.43;;;;;;;;;;6216513;23;20008;-85
2022/04/24 15:12:38;;;;;;;20.23;9.27;;;;;;;;;;6189269;23;20009;-89
2022/04/24 15:15:05;;;;;;;69.28;33.20;;;;;;;;;;6189466;23;20016;-85
2022/04/24 15:17:31;;;;;;;5.53;2.90;;;;;;;;;;6189812;23;20004;-83
2022/04/24 15:19:56;;;;;;;158.68;69.65;;;;;;;;;;6217805;23;20004;-82
2022/04/24 15:22:22;;;;;;;15.27;8.27;;;;;;;;;;6218265;23;20004;-82
2022/04/24 15:24:48;;;;;;;7.07;3.67;;;;;;;;;;6192975;23;20004;-84
2022/04/24 15:27:13;;;;;;;10.07;5.57;;;;;;;;;;6217712;23;20004;-87
2022/04/24 15:29:39;;;;;;;7.90;4.50;;;;;;;;;;6191361;23;20008;-86
2022/04/24 15:32:04;;;;;;;2.35;1.50;;;;;;;;;;6191292;23;20004;-85
2022/04/24 15:34:31;;;;;;;4.47;2.72;;;;;;;;;;6217769;23;20005;-83
2022/04/24 15:36:57;;;;;;;2.28;1.60;;;;;;;;;;6217358;23;20420;-85
2022/04/24 15:39:22;;;;;;;0.80;0.80;;;;;;;;;;6191219;23;20000;-87
2022/04/24 15:41:49;;;;;;;2.40;0.90;;;;;;;;;;6218285;23;20004;-90
2022/04/24 15:44:19;;;;;;;3.08;1.98;;;;;;;;;;6218059;23;20079;-87
2022/04/24 15:46:45;;;;;;;45.35;17.60;;;;;;;;;;6191181;23;20134;-86
2022/04/24 15:49:11;;;;;;;43.15;19.23;;;;;;;;;;6220971;23;20028;-88
2022/04/24 15:51:37;;;;;;;6.68;4.13;;;;;;;;;;6221220;23;20005;-84
2022/04/24 15:54:04;;;;;;;4.70;2.45;;;;;;;;;;6195538;23;20059;-86
2022/04/24 15:56:32;;;;;;;1.77;1.02;;;;;;;;;;6195488;23;20004;-88
2022/04/24 15:59:00;;;;;;;1.23;0.95;;;;;;;;;;6194021;23;20011;-85
2022/04/24 16:01:31;;;;;;;2.60;1.88;;;;;;;;;;6195345;23;20004;-85
2022/04/24 16:04:01;;;;;;;5.78;3.90;;;;;;;;;;6197594;23;19997;-84
2022/04/24 16:06:27;;;;;;;2.53;2.17;;;;;;;;;;6221673;23;20000;-87
2022/04/24 16:08:52;;;;;;;1.10;0.85;;;;;;;;;;6192814;23;20009;-84
2022/04/24 16:11:18;;;;;;;1.20;1.10;;;;;;;;;;6217396;23;20320;-85
2022/04/24 16:13:46;;;;;;;2.13;1.60;;;;;;;;;;6190518;23;20012;-85
2022/04/24 16:16:11;;;;;;;2.15;1.80;;;;;;;;;;6217026;23;20005;-84
2022/04/24 16:18:37;;;;;;;1.75;1.33;;;;;;;;;;6189762;23;20039;-84
2022/04/24 16:21:03;;;;;;;1.30;1.20;;;;;;;;;;6216708;23;20004;-83
2022/04/24 16:23:28;;;;;;;1.50;1.40;;;;;;;;;;6190168;23;20009;-83
2022/04/24 16:25:57;;;;;;;2.17;1.42;;;;;;;;;;6217146;23;20007;-83
2022/04/24 16:28:23;;;;;;;4.00;2.88;;;;;;;;;;6190450;23;20416;-83
2022/04/24 16:30:49;;;;;;;4.50;3.70;;;;;;;;;;6216435;23;20020;-83
2022/04/24 16:33:15;;;;;;;2.53;1.60;;;;;;;;;;6216794;23;20014;-83
2022/04/24 16:35:40;;;;;;;9.75;8.82;;;;;;;;;;6216811;23;20424;-89
2022/04/24 16:38:05;;;;;;;1.80;1.70;;;;;;;;;;6217788;23;20063;-88
2022/04/24 16:40:31;;;;;;;2.95;2.08;;;;;;;;;;6191169;23;20031;-86
2022/04/24 16:42:56;;;;;;;6.95;5.28;;;;;;;;;;6191599;23;20016;-93
2022/04/24 16:45:24;;;;;;;2.42;2.08;;;;;;;;;;6222801;23;20001;-91
2022/04/24 16:47:49;;;;;;;1.30;1.20;;;;;;;;;;6219814;23;20423;-90
2022/04/24 16:58:45;;;;;;;12.00;10.52;;;;;;;;;;6220512;23;20067;-96
2022/04/24 17:01:11;;;;;;;9.32;7.10;;;;;;;;;;6224777;23;20004;-95
2022/04/24 17:03:37;;;;;;;2.58;1.20;;;;;;;;;;6195702;23;20008;-93
2022/04/24 17:06:02;;;;;;;1.27;1.10;;;;;;;;;;6223856;23;20027;-95
2022/04/24 17:08:28;;;;;;;1.33;1.00;;;;;;;;;;6230747;23;20008;-96
2022/04/24 17:10:54;;;;;;;0.95;0.90;;;;;;;;;;6206812;23;20000;-93
2022/04/24 17:13:22;;;;;;;2.42;0.90;;;;;;;;;;6228463;23;20008;-92
2022/04/24 17:15:52;;;;;;;3.40;2.53;;;;;;;;;;6228446;23;20001;-87
2022/04/24 17:18:18;;;;;;;1.30;1.20;;;;;;;;;;6231426;23;20027;-91
2022/04/24 17:20:44;;;;;;;1.00;0.90;;;;;;;;;;6224224;23;19997;-90
2022/04/24 17:23:10;;;;;;;1.88;0.85;;;;;;;;;;6195504;23;20012;-90
2022/04/24 17:25:36;;;;;;;1.10;1.00;;;;;;;;;;6220797;23;19996;-92
2022/04/24 17:28:03;;;;;;;0.80;0.80;;;;;;;;;;6222018;23;20000;-93
2022/04/24 17:30:28;;;;;;;1.70;1.23;;;;;;;;;;6216923;23;20074;-88
2022/04/24 17:32:54;;;;;;;1.58;0.90;;;;;;;;;;6216875;23;20431;-83
2022/04/24 17:35:19;;;;;;;1.65;1.15;;;;;;;;;;6218434;23;20090;-89
2022/04/24 17:37:47;;;;;;;1.08;0.90;;;;;;;;;;6218621;23;20004;-88
2022/04/24 17:40:13;;;;;;;1.52;0.82;;;;;;;;;;6217949;23;20005;-87
2022/04/24 17:42:38;;;;;;;0.98;0.88;;;;;;;;;;6191995;23;20013;-87
2022/04/24 17:45:05;;;;;;;1.27;1.17;;;;;;;;;;6218484;23;20023;-89
2022/04/24 17:47:31;;;;;;;1.73;1.27;;;;;;;;;;6218969;23;20015;-89
2022/04/24 17:49:56;;;;;;;2.00;1.67;;;;;;;;;;6217046;23;20012;-85
2022/04/24 17:52:22;;;;;;;1.15;1.00;;;;;;;;;;6216671;23;20273;-88
2022/04/24 17:54:49;;;;;;;1.10;1.00;;;;;;;;;;6217489;23;20008;-90
2022/04/24 17:57:15;;;;;;;0.95;0.80;;;;;;;;;;6216685;23;20031;-89
2022/04/24 17:59:40;;;;;;;1.90;0.98;;;;;;;;;;6218634;23;20451;-90
2022/04/24 18:02:06;;;;;;;2.40;1.52;;;;;;;;;;6218494;23;20001;-86
2022/04/24 18:04:32;;;;;;;3.20;2.70;;;;;;;;;;6190926;23;20009;-85
2022/04/24 18:06:58;;;;;;;2.60;1.23;;;;;;;;;;6216807;23;20363;-86
2022/04/24 18:09:23;;;;;;;1.52;1.20;;;;;;;;;;6216525;23;20071;-89
2022/04/24 18:11:49;;;;;;;3.70;1.40;;;;;;;;;;6190767;23;20077;-85
2022/04/24 18:14:15;;;;;;;2.05;1.20;;;;;;;;;;6190497;23;20007;-85
2022/04/24 18:16:44;;;;;;;3.28;2.25;;;;;;;;;;6216294;23;20004;-84
2022/04/24 18:19:11;;;;;;;3.05;2.45;;;;;;;;;;6189435;23;20055;-83
2022/04/24 18:21:37;;;;;;;4.47;1.67;;;;;;;;;;6215841;23;20420;-88
2022/04/24 18:24:04;;;;;;;1.45;1.20;;;;;;;;;;6189872;23;20024;-83
2022/04/24 18:26:30;;;;;;;2.55;1.20;;;;;;;;;;6193376;23;20008;-91
2022/04/24 18:28:56;;;;;;;2.20;1.25;;;;;;;;;;6218125;23;20008;-89
2022/04/24 18:31:21;;;;;;;2.55;1.25;;;;;;;;;;6191338;23;20009;-85
2022/04/24 18:33:47;;;;;;;1.08;0.90;;;;;;;;;;6218063;23;20005;-91
2022/04/24 18:38:57;;;;;;;0.93;0.80;;;;;;;;;;6218198;23;20015;-84
2022/04/24 18:41:23;;;;;;;0.85;0.85;;;;;;;;;;6218641;23;20001;-87
2022/04/24 18:43:49;;;;;;;1.80;1.20;;;;;;;;;;6216903;23;20005;-89
2022/04/24 18:46:15;;;;;;;1.67;0.80;;;;;;;;;;6219539;23;20128;-90
2022/04/24 18:48:40;;;;;;;1.63;1.08;;;;;;;;;;6189796;23;20000;-85
2022/04/24 18:51:06;;;;;;;1.75;1.40;;;;;;;;;;6184433;23;20013;-89
2022/04/24 18:53:34;;;;;;;1.75;1.08;;;;;;;;;;6188378;23;20032;-87
2022/04/24 18:56:00;;;;;;;1.35;1.25;;;;;;;;;;6189696;23;20001;-89
2022/04/24 18:58:27;;;;;;;1.10;1.00;;;;;;;;;;6190631;23;20013;-86
2022/04/24 19:00:52;;;;;;;2.80;1.20;;;;;;;;;;6188139;23;20001;-86
2022/04/24 19:03:19;;;;;;;1.25;1.08;;;;;;;;;;6186370;23;20016;-87
2022/04/24 19:08:29;;;;;;;1.67;1.25;;;;;;;;;;6188401;23;20032;-85
2022/04/24 19:13:43;;;;;;;1.30;1.20;;;;;;;;;;6187439;23;20092;-85
2022/04/24 19:16:12;;;;;;;1.33;1.20;;;;;;;;;;6187742;23;20005;-87
2022/04/24 19:18:38;;;;;;;1.20;1.10;;;;;;;;;;6185758;23;20080;-85
2022/04/24 19:21:07;;;;;;;1.17;1.02;;;;;;;;;;6186198;23;20417;-88
2022/04/24 19:23:33;;;;;;;1.80;1.17;;;;;;;;;;6186284;23;20001;-87
2022/04/24 19:26:00;;;;;;;1.83;0.85;;;;;;;;;;6186315;23;20341;-83
2022/04/24 19:28:26;;;;;;;1.73;1.25;;;;;;;;;;6187753;23;19997;-85
2022/04/24 19:30:52;;;;;;;1.40;1.20;;;;;;;;;;6187843;23;20005;-87
2022/04/24 19:33:18;;;;;;;1.92;1.10;;;;;;;;;;6185954;23;20096;-84
2022/04/24 19:35:43;;;;;;;1.48;0.90;;;;;;;;;;6189080;23;20321;-91
2022/04/24 19:38:09;;;;;;;1.20;1.10;;;;;;;;;;6188649;23;20337;-88
2022/04/24 19:40:34;;;;;;;1.27;0.98;;;;;;;;;;6189014;23;20000;-89
2022/04/24 19:43:03;;;;;;;1.23;1.10;;;;;;;;;;6187643;23;20465;-87
2022/04/24 19:45:31;;;;;;;1.27;1.15;;;;;;;;;;6190716;23;20073;-88
2022/04/24 19:50:41;;;;;;;3.03;1.00;;;;;;;;;;6211452;23;20024;-86
2022/04/24 19:53:06;;;;;;;1.05;0.95;;;;;;;;;;6191973;23;20420;-88
2022/04/24 19:55:32;;;;;;;1.55;1.08;;;;;;;;;;6221014;23;20008;-95
2022/04/24 19:57:57;;;;;;;1.80;1.20;;;;;;;;;;6226056;23;20027;-89
2022/04/24 20:00:24;;;;;;;1.25;1.13;;;;;;;;;;6219690;23;20049;-88
2022/04/24 20:02:50;;;;;;;1.75;1.23;;;;;;;;;;6192997;23;20016;-94
2022/04/24 20:05:15;;;;;;;1.50;1.30;;;;;;;;;;6193406;23;20001;-93
2022/04/24 20:07:44;;;;;;;2.42;1.60;;;;;;;;;;6219076;23;20001;-89
2022/04/24 20:10:10;;;;;;;2.75;2.15;;;;;;;;;;6218698;23;20004;-89
2022/04/24 20:12:35;;;;;;;3.42;1.80;;;;;;;;;;6219110;23;20078;-91
2022/04/24 20:15:02;;;;;;;2.05;1.42;;;;;;;;;;6192055;23;20012;-88
2022/04/24 20:17:28;;;;;;;1.75;1.13;;;;;;;;;;6219461;23;20451;-91
2022/04/24 20:19:53;;;;;;;1.50;1.00;;;;;;;;;;6192956;23;20004;-91
2022/04/24 20:22:19;;;;;;;1.20;1.08;;;;;;;;;;6220340;23;20005;-94
2022/04/24 20:24:45;;;;;;;1.88;0.85;;;;;;;;;;6219672;23;20334;-92
2022/04/24 20:27:10;;;;;;;1.00;0.90;;;;;;;;;;6219883;23;20028;-92
2022/04/24 20:29:38;;;;;;;1.25;1.10;;;;;;;;;;6219888;23;20076;-94
2022/04/24 20:32:04;;;;;;;1.42;1.20;;;;;;;;;;6192296;23;20001;-91
2022/04/24 20:34:30;;;;;;;2.58;1.20;;;;;;;;;;6218036;23;20059;-90
2022/04/24 20:36:56;;;;;;;1.95;1.08;;;;;;;;;;6217866;23;20009;-90
2022/04/24 20:39:26;;;;;;;1.50;1.30;;;;;;;;;;6217707;23;20015;-87
2022/04/24 20:41:51;;;;;;;1.30;1.10;;;;;;;;;;6217138;23;20058;-85
2022/04/24 20:44:17;;;;;;;1.67;1.10;;;;;;;;;;6217793;23;20071;-87
2022/04/24 20:46:43;;;;;;;1.10;1.00;;;;;;;;;;6217463;23;20042;-89
2022/04/24 20:49:09;;;;;;;1.33;0.90;;;;;;;;;;6217468;23;20008;-90
2022/04/24 20:51:36;;;;;;;1.33;1.00;;;;;;;;;;6191054;23;20009;-83
2022/04/24 20:54:02;;;;;;;7.70;1.50;;;;;;;;;;6217413;23;20039;-87
2022/04/24 20:56:37;;;;;;;0.98;0.98;;;;;;;;;;6217017;23;20035;-87
2022/04/24 20:59:05;;;;;;;0.93;0.93;;;;;;;;;;6216772;23;20004;-86
2022/04/24 21:01:31;;;;;;;1.63;1.33;;;;;;;;;;6216610;23;20004;-84
2022/04/24 21:03:58;;;;;;;1.67;1.20;;;;;;;;;;6216764;23;20009;-87
2022/04/24 21:06:25;;;;;;;1.58;1.10;;;;;;;;;;6216693;23;20324;-85
2022/04/24 21:08:51;;;;;;;1.48;1.38;;;;;;;;;;6216787;23;20031;-86
2022/04/24 21:11:17;;;;;;;1.00;0.85;;;;;;;;;;6216657;23;20055;-85
2022/04/24 21:13:42;;;;;;;1.00;0.85;;;;;;;;;;6216765;23;20004;-84
2022/04/24 21:16:08;;;;;;;1.10;1.00;;;;;;;;;;6189953;23;20009;-86
2022/04/24 21:18:33;;;;;;;1.52;0.80;;;;;;;;;;6216340;23;20035;-84
2022/04/24 21:20:59;;;;;;;2.63;1.35;;;;;;;;;;6216496;23;20060;-84
2022/04/24 21:23:26;;;;;;;1.95;1.42;;;;;;;;;;6216733;23;20507;-84
2022/04/24 21:25:51;;;;;;;1.58;1.38;;;;;;;;;;6189862;23;19997;-84
2022/04/24 21:28:22;;;;;;;2.38;1.35;;;;;;;;;;6216575;23;20032;-85
2022/04/24 21:30:48;;;;;;;2.28;1.13;;;;;;;;;;6190459;23;20004;-87
2022/04/24 21:33:14;;;;;;;2.60;1.33;;;;;;;;;;6217034;23;20066;-86
2022/04/24 21:35:39;;;;;;;1.35;1.25;;;;;;;;;;6217429;23;20417;-89
2022/04/24 21:38:05;;;;;;;2.20;1.20;;;;;;;;;;6217693;23;20004;-91
2022/04/24 21:40:30;;;;;;;1.58;1.20;;;;;;;;;;6218247;23;20424;-90
2022/04/24 21:42:55;;;;;;;1.77;1.35;;;;;;;;;;6191304;23;20111;-88
2022/04/24 21:45:21;;;;;;;1.20;1.10;;;;;;;;;;6190984;23;20008;-89
2022/04/24 21:47:46;;;;;;;1.30;1.00;;;;;;;;;;6191345;23;20058;-89
2022/04/24 21:50:12;;;;;;;2.00;1.13;;;;;;;;;;6186111;23;20049;-89
2022/04/24 21:52:40;;;;;;;1.00;0.90;;;;;;;;;;6186542;23;20036;-90
2022/04/24 21:55:07;;;;;;;1.67;1.40;;;;;;;;;;6185726;23;20310;-88
2022/04/24 21:57:34;;;;;;;3.42;1.10;;;;;;;;;;6185224;23;20380;-88
